createdAt,value
2022-08-28T00:01:44.599Z,99533.56
2022-08-28T00:04:46.732Z,99545.03
2022-08-28T00:07:49.004Z,99529.94
2022-08-28T00:10:51.127Z,99533.28
2022-08-28T00:13:53.313Z,99533.25
2022-08-28T00:16:58.724Z,99539.19
2022-08-28T00:20:00.918Z,99543.56
2022-08-28T00:23:03.275Z,99536.19
2022-08-28T00:26:05.451Z,99539.94
2022-08-28T00:29:08.561Z,99532.75
2022-08-28T00:32:10.724Z,99545.09
2022-08-28T00:35:12.888Z,99543.38
2022-08-28T00:38:15.868Z,99543.09
2022-08-28T00:41:18.047Z,99545.72
2022-08-28T00:44:28.800Z,99533.78
2022-08-28T00:47:30.988Z,99533.84
2022-08-28T00:50:52.967Z,99531.34
2022-08-28T00:53:59.423Z,99519.28
2022-08-28T00:57:07.826Z,99516.78
2022-08-28T01:00:19.910Z,99530.41
2022-08-28T01:03:25.012Z,99528.03
2022-08-28T01:06:28.534Z,99532.09
2022-08-28T01:09:31.313Z,99524.00
2022-08-28T01:12:33.533Z,99529.91
2022-08-28T01:15:36.118Z,99535.25
2022-08-28T01:18:39.377Z,99536.63
2022-08-28T01:22:11.436Z,99541.38
2022-08-28T01:25:18.439Z,99538.41
2022-08-28T01:28:20.689Z,99528.88
2022-08-28T01:31:22.894Z,99538.94
2022-08-28T01:34:25.074Z,99537.41
2022-08-28T01:37:27.216Z,99530.19
2022-08-28T01:40:38.137Z,99531.84
2022-08-28T01:43:41.182Z,99524.19
2022-08-28T01:46:43.527Z,99525.41
2022-08-28T01:49:45.747Z,99524.97
2022-08-28T01:52:47.964Z,99524.41
2022-08-28T01:55:50.704Z,99518.94
2022-08-28T01:58:53.251Z,99516.28
2022-08-28T02:01:55.510Z,99510.53
2022-08-28T02:04:58.295Z,99517.53
2022-08-28T02:08:02.775Z,99518.72
2022-08-28T02:11:06.385Z,99514.47
2022-08-28T02:14:08.724Z,99521.47
2022-08-28T02:17:12.187Z,99516.47
2022-08-28T02:20:14.601Z,99516.94
2022-08-28T02:23:17.950Z,99514.53
2022-08-28T02:26:20.873Z,99517.94
2022-08-28T02:29:23.601Z,99515.31
2022-08-28T02:32:26.868Z,99519.34
2022-08-28T02:35:29.089Z,99517.53
2022-08-28T02:38:31.187Z,99518.13
2022-08-28T02:41:34.897Z,99519.53
2022-08-28T02:44:37.018Z,99521.81
2022-08-28T02:47:40.716Z,99516.13
2022-08-28T02:50:42.778Z,99521.31
2022-08-28T02:53:44.938Z,99517.84
2022-08-28T02:56:47.087Z,99520.06
2022-08-28T02:59:49.170Z,99522.13
2022-08-28T03:02:51.453Z,99509.97
2022-08-28T03:05:53.668Z,99507.06
2022-08-28T03:08:55.834Z,99509.94
2022-08-28T03:11:57.905Z,99515.94
2022-08-28T03:15:00.086Z,99516.31
2022-08-28T03:18:02.174Z,99512.59
2022-08-28T03:21:10.394Z,99513.34
2022-08-28T03:24:12.518Z,99521.66
2022-08-28T03:27:17.794Z,99520.69
2022-08-28T03:30:20.475Z,99521.28
2022-08-28T03:33:22.550Z,99522.38
2022-08-28T03:36:26.819Z,99529.91
2022-08-28T03:39:28.910Z,99523.72
2022-08-28T03:42:31.570Z,99520.00
2022-08-28T03:45:34.674Z,99522.81
2022-08-28T03:48:37.581Z,99519.31
2022-08-28T03:51:39.665Z,99513.41
2022-08-28T03:54:41.732Z,99514.88
2022-08-28T03:57:44.314Z,99514.56
2022-08-28T04:00:46.515Z,99512.69
2022-08-28T04:03:48.907Z,99516.50
2022-08-28T04:06:51.006Z,99511.66
2022-08-28T04:09:53.802Z,99514.41
2022-08-28T04:12:56.115Z,99522.97
2022-08-28T04:16:05.176Z,99515.94
2022-08-28T04:19:08.657Z,99519.19
2022-08-28T04:22:10.859Z,99518.59
2022-08-28T04:25:12.988Z,99510.19
2022-08-28T04:28:15.062Z,99513.19
2022-08-28T04:31:17.697Z,99511.81
2022-08-28T04:34:19.858Z,99516.56
2022-08-28T04:37:22.820Z,99510.94
2022-08-28T04:40:30.118Z,99528.47
2022-08-28T04:43:32.334Z,99524.41
2022-08-28T04:46:34.591Z,99524.19
2022-08-28T04:49:36.804Z,99533.72
2022-08-28T04:52:38.894Z,99527.34
2022-08-28T04:55:53.462Z,99528.69
2022-08-28T04:58:56.922Z,99527.97
2022-08-28T05:01:59.071Z,99539.22
2022-08-28T05:05:01.163Z,99542.06
2022-08-28T05:08:03.479Z,99545.72
2022-08-28T05:11:33.837Z,99545.53
2022-08-28T05:14:36.891Z,99550.44
2022-08-28T05:17:38.991Z,99540.41
2022-08-28T05:20:43.773Z,99548.22
2022-08-28T05:23:46.429Z,99551.25
2022-08-28T05:26:48.791Z,99542.94
2022-08-28T05:29:51.357Z,99549.03
2022-08-28T05:32:53.993Z,99552.25
2022-08-28T05:35:56.086Z,99541.25
2022-08-28T05:38:58.318Z,99552.25
2022-08-28T05:42:00.426Z,99560.53
2022-08-28T05:45:02.577Z,99561.47
2022-08-28T05:48:04.794Z,99573.06
2022-08-28T05:51:08.917Z,99571.22
2022-08-28T05:54:11.646Z,99573.28
2022-08-28T05:57:13.719Z,99574.94
2022-08-28T06:00:15.993Z,99566.97
2022-08-28T06:03:18.063Z,99578.34
2022-08-28T06:06:20.133Z,99573.09
2022-08-28T06:09:29.604Z,99584.56
2022-08-28T06:12:32.203Z,99583.25
2022-08-28T06:15:36.078Z,99569.34
2022-08-28T06:18:38.449Z,99575.75
2022-08-28T06:21:41.499Z,99574.16
2022-08-28T06:24:43.646Z,99575.28
2022-08-28T06:27:45.739Z,99578.75
2022-08-28T06:31:18.059Z,99586.78
2022-08-28T06:34:10.186Z,99591.03
2022-08-28T06:37:12.269Z,99596.75
2022-08-28T06:40:14.754Z,99609.13
2022-08-28T06:43:17.710Z,99597.00
2022-08-28T06:46:19.989Z,99606.03
2022-08-28T06:49:22.207Z,99610.69
2022-08-28T06:52:24.271Z,99605.94
2022-08-28T06:55:26.427Z,99607.25
2022-08-28T06:58:29.554Z,99608.28
2022-08-28T07:01:34.830Z,99598.50
2022-08-28T07:04:38.077Z,99606.81
2022-08-28T07:07:40.246Z,99600.13
2022-08-28T07:10:42.313Z,99612.44
2022-08-28T07:13:45.034Z,99619.16
2022-08-28T07:16:47.214Z,99614.38
2022-08-28T07:19:49.387Z,99616.72
2022-08-28T07:22:54.133Z,99614.09
2022-08-28T07:26:06.535Z,99617.13
2022-08-28T07:29:09.990Z,99620.41
2022-08-28T07:32:13.383Z,99622.06
2022-08-28T07:35:16.766Z,99615.63
2022-08-28T07:38:19.168Z,99618.03
2022-08-28T07:41:24.140Z,99621.53
2022-08-28T07:44:45.024Z,99620.69
2022-08-28T07:47:47.218Z,99622.56
2022-08-28T07:50:49.499Z,99620.41
2022-08-28T07:53:53.434Z,99626.56
2022-08-28T07:56:55.767Z,99621.78
2022-08-28T07:59:59.439Z,99631.22
2022-08-28T08:03:01.574Z,99621.00
2022-08-28T08:06:04.622Z,99631.19
2022-08-28T08:09:09.149Z,99636.84
2022-08-28T08:12:11.754Z,99641.66
2022-08-28T08:15:14.029Z,99646.75
2022-08-28T08:18:17.184Z,99640.06
2022-08-28T08:21:26.051Z,99644.34
2022-08-28T08:24:30.525Z,99638.88
2022-08-28T08:27:33.424Z,99642.94
2022-08-28T08:30:35.494Z,99647.03
2022-08-28T08:33:39.368Z,99652.94
2022-08-28T08:36:41.439Z,99650.31
2022-08-28T08:39:43.953Z,99647.88
2022-08-28T08:42:48.138Z,99647.34
2022-08-28T08:45:52.119Z,99655.50
2022-08-28T08:48:54.286Z,99659.47
2022-08-28T08:52:25.324Z,99661.59
2022-08-28T08:55:31.402Z,99656.94
2022-08-28T08:58:37.119Z,99659.41
2022-08-28T09:02:07.487Z,99649.66
2022-08-28T09:05:15.551Z,99655.91
2022-08-28T09:08:28.015Z,99655.94
2022-08-28T09:11:57.109Z,99648.00
2022-08-28T09:15:05.581Z,99647.19
2022-08-28T09:18:28.670Z,99647.19
2022-08-28T09:21:34.152Z,99652.91
2022-08-28T09:24:39.290Z,99656.84
2022-08-28T09:27:52.764Z,99646.09
2022-08-28T09:31:05.485Z,99641.41
2022-08-28T09:34:23.669Z,99643.25
2022-08-28T09:37:26.576Z,99647.81
2022-08-28T09:40:50.868Z,99642.78
2022-08-28T09:43:53.016Z,99646.28
2022-08-28T09:46:55.138Z,99647.72
2022-08-28T09:50:14.307Z,99654.25
2022-08-28T09:53:19.621Z,99656.69
2022-08-28T09:56:30.456Z,99649.47
2022-08-28T09:59:32.562Z,99645.31
2022-08-28T10:02:54.322Z,99641.72
2022-08-28T10:06:19.978Z,99645.22
2022-08-28T10:09:36.870Z,99641.38
2022-08-28T10:13:30.282Z,99640.97
2022-08-28T10:16:49.103Z,99642.03
2022-08-28T10:20:17.809Z,99643.16
2022-08-28T10:23:28.750Z,99643.00
2022-08-28T10:26:43.386Z,99637.16
2022-08-28T10:29:53.730Z,99636.13
2022-08-28T10:33:41.897Z,99648.69
2022-08-28T10:36:44.724Z,99637.38
2022-08-28T10:39:59.076Z,99637.00
2022-08-28T10:43:07.392Z,99643.25
2022-08-28T10:46:46.324Z,99636.00
2022-08-28T10:49:50.570Z,99650.56
2022-08-28T10:53:32.046Z,99645.44
2022-08-28T10:56:43.195Z,99638.94
2022-08-28T10:59:46.985Z,99640.31
2022-08-28T11:02:55.433Z,99647.44
2022-08-28T11:06:05.865Z,99649.03
2022-08-28T11:09:26.767Z,99647.25
2022-08-28T11:12:34.375Z,99646.59
2022-08-28T11:15:37.557Z,99649.50
2022-08-28T11:19:09.949Z,99656.91
2022-08-28T11:22:22.666Z,99658.00
2022-08-28T11:25:47.467Z,99657.25
2022-08-28T11:28:50.654Z,99655.88
2022-08-28T11:32:28.737Z,99663.31
2022-08-28T11:35:30.715Z,99668.13
2022-08-28T11:38:41.578Z,99672.72
2022-08-28T11:42:11.249Z,99670.34
2022-08-28T11:45:42.626Z,99664.75
2022-08-28T11:48:56.656Z,99668.53
2022-08-28T11:52:23.712Z,99662.38
2022-08-28T11:55:55.085Z,99662.38
2022-08-28T11:59:08.123Z,99663.28
2022-08-28T12:02:39.953Z,99664.38
2022-08-28T12:05:45.611Z,99664.69
2022-08-28T12:08:51.407Z,99664.31
2022-08-28T12:12:07.230Z,99667.69
2022-08-28T12:15:09.594Z,99668.25
2022-08-28T12:18:11.864Z,99668.34
2022-08-28T12:21:17.845Z,99674.19
2022-08-28T12:24:22.542Z,99682.53
2022-08-28T12:27:25.141Z,99682.00
2022-08-28T12:30:33.462Z,99683.31
2022-08-28T12:33:47.142Z,99684.44
2022-08-28T12:36:57.610Z,99682.09
2022-08-28T12:40:27.968Z,99685.16
2022-08-28T12:43:41.738Z,99687.94
2022-08-28T12:46:49.529Z,99688.59
2022-08-28T12:49:51.687Z,99688.00
2022-08-28T12:52:56.859Z,99690.41
2022-08-28T12:55:59.123Z,99683.75
2022-08-28T12:59:38.951Z,99681.00
2022-08-28T13:02:41.403Z,99688.00
2022-08-28T13:05:43.802Z,99681.94
2022-08-28T13:08:47.894Z,99683.28
2022-08-28T13:11:51.431Z,99679.25
2022-08-28T13:14:53.950Z,99674.56
2022-08-28T13:17:56.264Z,99672.97
2022-08-28T13:21:15.179Z,99671.00
2022-08-28T13:24:27.358Z,99674.25
2022-08-28T13:27:29.663Z,99674.13
2022-08-28T13:30:33.852Z,99681.72
2022-08-28T13:33:36.065Z,99674.25
2022-08-28T13:36:50.004Z,99678.16
2022-08-28T13:39:52.150Z,99679.28
2022-08-28T13:43:00.915Z,99684.81
2022-08-28T13:46:03.199Z,99672.09
2022-08-28T13:49:05.397Z,99673.03
2022-08-28T13:52:07.951Z,99674.63
2022-08-28T13:55:11.683Z,99670.41
2022-08-28T13:58:14.297Z,99676.47
2022-08-28T14:01:19.667Z,99677.41
2022-08-28T14:04:24.791Z,99679.06
2022-08-28T14:07:26.948Z,99687.59
2022-08-28T14:10:29.170Z,99694.28
2022-08-28T14:13:31.342Z,99694.78
2022-08-28T14:16:37.847Z,99699.38
2022-08-28T14:19:42.197Z,99692.44
2022-08-28T14:22:44.622Z,99696.22
2022-08-28T14:25:47.311Z,99704.84
2022-08-28T14:28:49.472Z,99703.00
2022-08-28T14:31:51.874Z,99701.88
2022-08-28T14:34:54.098Z,99701.91
2022-08-28T14:37:56.467Z,99708.91
2022-08-28T14:40:58.654Z,99710.53
2022-08-28T14:44:00.911Z,99711.34
2022-08-28T14:47:03.353Z,99703.78
2022-08-28T14:50:06.604Z,99715.34
2022-08-28T14:53:09.770Z,99716.44
2022-08-28T14:56:12.071Z,99721.75
2022-08-28T14:59:21.921Z,99719.88
2022-08-28T15:02:26.070Z,99721.28
2022-08-28T15:05:28.530Z,99722.91
2022-08-28T15:08:31.034Z,99725.25
2022-08-28T15:11:35.419Z,99731.16
2022-08-28T15:14:37.567Z,99729.81
2022-08-28T15:17:39.714Z,99741.44
2022-08-28T15:20:44.844Z,99732.56
2022-08-28T15:23:49.734Z,99731.47
2022-08-28T15:26:52.079Z,99732.56
2022-08-28T15:29:54.225Z,99733.66
2022-08-28T15:32:56.339Z,99733.09
2022-08-28T15:35:58.469Z,99735.00
2022-08-28T15:39:19.344Z,99737.13
2022-08-28T15:42:21.498Z,99729.06
2022-08-28T15:45:23.668Z,99731.75
2022-08-28T15:48:25.882Z,99736.84
2022-08-28T15:51:28.119Z,99733.63
2022-08-28T15:54:30.323Z,99743.31
2022-08-28T15:57:32.839Z,99740.09
2022-08-28T16:00:34.995Z,99742.75
2022-08-28T16:03:38.254Z,99742.50
2022-08-28T16:06:40.649Z,99744.66
2022-08-28T16:09:42.814Z,99745.44
2022-08-28T16:12:44.942Z,99747.06
2022-08-28T16:15:52.378Z,99749.50
2022-08-28T16:18:54.557Z,99743.31
2022-08-28T16:21:57.118Z,99747.34
2022-08-28T16:24:59.243Z,99742.81
2022-08-28T16:28:01.606Z,99747.09
2022-08-28T16:31:07.377Z,99744.66
2022-08-28T16:34:10.931Z,99748.69
2022-08-28T16:37:18.576Z,99740.09
2022-08-28T16:40:23.672Z,99742.97
2022-08-28T16:43:25.912Z,99745.41
2022-08-28T16:46:28.226Z,99751.38
2022-08-28T16:49:30.370Z,99742.72
2022-08-28T16:52:32.510Z,99742.41
2022-08-28T16:55:35.102Z,99742.94
2022-08-28T16:58:38.101Z,99740.84
2022-08-28T17:01:40.813Z,99743.75
2022-08-28T17:04:44.174Z,99740.28
2022-08-28T17:07:47.475Z,99738.06
2022-08-28T17:10:49.603Z,99747.44
2022-08-28T17:13:51.710Z,99736.66
2022-08-28T17:16:53.846Z,99738.13
2022-08-28T17:19:55.984Z,99743.75
2022-08-28T17:22:58.220Z,99747.56
2022-08-28T17:26:00.426Z,99743.59
2022-08-28T17:29:03.006Z,99741.59
2022-08-28T17:32:07.813Z,99741.47
2022-08-28T17:35:09.946Z,99739.84
2022-08-28T17:38:12.500Z,99746.13
2022-08-28T17:41:14.919Z,99747.13
2022-08-28T17:44:17.120Z,99744.13
2022-08-28T17:47:21.750Z,99746.84
2022-08-28T17:50:32.921Z,99746.97
2022-08-28T17:53:35.429Z,99755.16
2022-08-28T17:56:37.611Z,99746.84
2022-08-28T17:59:40.239Z,99745.13
2022-08-28T18:02:43.463Z,99754.69
2022-08-28T18:05:46.275Z,99762.78
2022-08-28T18:08:48.562Z,99757.94
2022-08-28T18:11:51.394Z,99758.16
2022-08-28T18:14:53.550Z,99762.19
2022-08-28T18:17:55.823Z,99765.25
2022-08-28T18:20:58.504Z,99758.47
2022-08-28T18:24:00.622Z,99767.75
2022-08-28T18:27:03.201Z,99772.81
2022-08-28T18:30:05.930Z,99775.16
2022-08-28T18:33:08.864Z,99774.41
2022-08-28T18:36:12.571Z,99778.84
2022-08-28T18:39:15.229Z,99785.41
2022-08-28T18:42:25.025Z,99787.25
2022-08-28T18:45:27.181Z,99790.59
2022-08-28T18:48:29.379Z,99795.59
2022-08-28T18:51:32.678Z,99796.59
2022-08-28T18:54:34.810Z,99808.69
2022-08-28T18:57:37.958Z,99802.75
2022-08-28T19:00:40.197Z,99806.28
2022-08-28T19:03:42.313Z,99805.28
2022-08-28T19:06:44.493Z,99814.88
2022-08-28T19:09:49.219Z,99817.56
2022-08-28T19:12:51.371Z,99819.53
2022-08-28T19:15:53.717Z,99822.91
2022-08-28T19:18:55.924Z,99824.34
2022-08-28T19:21:58.050Z,99827.75
2022-08-28T19:25:02.603Z,99829.69
2022-08-28T19:28:04.818Z,99837.50
2022-08-28T19:31:07.894Z,99834.72
2022-08-28T19:34:12.094Z,99842.25
2022-08-28T19:37:16.211Z,99836.09
2022-08-28T19:40:18.481Z,99840.66
2022-08-28T19:43:20.634Z,99839.72
2022-08-28T19:46:22.783Z,99847.69
2022-08-28T19:49:24.946Z,99846.25
2022-08-28T19:52:27.155Z,99853.19
2022-08-28T19:55:29.619Z,99852.41
2022-08-28T19:58:32.579Z,99843.06
2022-08-28T20:01:38.146Z,99850.91
2022-08-28T20:04:40.359Z,99850.91
2022-08-28T20:07:42.455Z,99856.38
2022-08-28T20:10:46.100Z,99855.63
2022-08-28T20:13:48.497Z,99857.59
2022-08-28T20:16:51.489Z,99850.75
2022-08-28T20:19:53.893Z,99858.63
2022-08-28T20:22:56.146Z,99858.94
2022-08-28T20:25:58.470Z,99868.50
2022-08-28T20:29:01.060Z,99867.88
2022-08-28T20:32:04.366Z,99867.28
2022-08-28T20:35:08.383Z,99859.63
2022-08-28T20:38:11.148Z,99873.56
2022-08-28T20:41:21.157Z,99864.88
2022-08-28T20:44:23.367Z,99879.44
2022-08-28T20:47:26.011Z,99865.75
2022-08-28T20:50:28.123Z,99871.75
2022-08-28T20:53:37.578Z,99873.34
2022-08-28T20:56:40.242Z,99867.38
2022-08-28T20:59:43.460Z,99876.47
2022-08-28T21:02:45.586Z,99876.94
2022-08-28T21:05:47.806Z,99871.97
2022-08-28T21:08:51.351Z,99875.47
2022-08-28T21:11:53.480Z,99878.63
2022-08-28T21:14:55.631Z,99876.91
2022-08-28T21:17:58.467Z,99873.31
2022-08-28T21:21:04.446Z,99882.25
2022-08-28T21:24:08.363Z,99878.94
2022-08-28T21:27:10.463Z,99886.84
2022-08-28T21:30:14.831Z,99877.50
2022-08-28T21:33:16.992Z,99875.09
2022-08-28T21:36:19.204Z,99885.13
2022-08-28T21:39:21.291Z,99881.81
2022-08-28T21:42:23.535Z,99885.47
2022-08-28T21:45:25.598Z,99885.38
2022-08-28T21:48:27.959Z,99888.88
2022-08-28T21:51:30.042Z,99885.19
2022-08-28T21:54:32.113Z,99889.13
2022-08-28T21:57:34.591Z,99890.72
2022-08-28T22:00:36.658Z,99885.13
2022-08-28T22:03:38.727Z,99889.50
2022-08-28T22:06:40.869Z,99887.81
2022-08-28T22:09:43.199Z,99888.78
2022-08-28T22:12:45.269Z,99898.25
2022-08-28T22:15:48.006Z,99893.81
2022-08-28T22:18:50.564Z,99892.59
2022-08-28T22:22:11.462Z,99899.63
2022-08-28T22:25:13.991Z,99902.00
2022-08-28T22:28:16.145Z,99903.59
2022-08-28T22:31:18.265Z,99905.59
2022-08-28T22:34:20.408Z,99903.72
2022-08-28T22:37:23.271Z,99902.41
2022-08-28T22:40:25.528Z,99909.69
2022-08-28T22:43:27.722Z,99902.38
2022-08-28T22:46:30.085Z,99901.44
2022-08-28T22:49:32.224Z,99896.41
2022-08-28T22:52:34.373Z,99896.03
2022-08-28T22:55:40.089Z,99903.91
2022-08-28T22:58:45.436Z,99899.97
2022-08-28T23:01:47.535Z,99890.56
2022-08-28T23:04:51.317Z,99897.88
2022-08-28T23:07:55.159Z,99902.44
2022-08-28T23:10:59.275Z,99895.34
2022-08-28T23:14:01.810Z,99905.13
2022-08-28T23:17:03.965Z,99900.06
2022-08-28T23:20:08.211Z,99903.06
2022-08-28T23:23:12.366Z,99900.28
2022-08-28T23:26:15.125Z,99904.84
2022-08-28T23:29:17.326Z,99910.84
2022-08-28T23:32:19.437Z,99908.09
2022-08-28T23:35:22.339Z,99904.88
2022-08-28T23:38:24.448Z,99908.19
2022-08-28T23:41:28.310Z,99906.06
2022-08-28T23:44:30.427Z,99907.41
2022-08-28T23:47:33.307Z,99911.22
2022-08-28T23:50:35.386Z,99900.47
2022-08-28T23:53:38.927Z,99906.63
2022-08-28T23:56:41.833Z,99908.03
2022-08-28T23:59:44.223Z,99907.16
